首页
METAR-TAF:

METAR-TAF

机场 :

莫斯科舍列梅季耶夫, 俄罗斯

谢列梅捷沃国际机场

纬度: 55-59N, 经度: 037-30E, 海拔: 190米

当前天气观测

该预报发布于16分钟前的01:30 UTC
风速10节,风向南转南东
温度 -3°C
湿度 80%
气压 1010 hPa
能见度10公里或以上
阴天层高于1700英尺

METAR: UUEE 190130Z 15005MPS 9999 OVC017 M03/M06 Q1010 R06L/450236 NOSIG

时间: 04:46 (01:46 UTC)

预报

该预报发布于2小时和47分钟前的22:59 UTC
预报有效从19日的 00点(UTC)到 19日的 24点(UTC)
风速12节,风向东南
能見度: 9000
多云层高于1100英尺
短暂存在
从 19日的 00点(UTC)到 19日的 06点(UTC)
能見度: 3100
阴天层高于500英尺
小雪
几率 40% :
短暂存在
从 19日的 00点(UTC)到 19日的 06点(UTC)
(小) 冻, 毛毛雨
成为
从 19日的 06点(UTC)到 19日的 08点(UTC)
能見度: 9000
多云层高于1500英尺
短暂存在
从 19日的 20点(UTC)到 19日的 24点(UTC)
风速25节,风向东南
能見度: 1000
多云层高于500英尺
多云层高于1200英尺, 积雨云.
阵雪

TAF: UUEE 182259Z 1900/1924 14006MPS 9000 BKN011 TXM03/1900Z TNM10/1921Z TEMPO 1900/1906 3100 -SN OVC005 PROB40 TEMPO 1900/1906 -FZDZ BECMG 1906/1908 9000 NSW BKN015 TEMPO 1920/1924 14013MPS 1000 SHSN BKN005 BKN012CB

超过4000个机场的气象观测和天气预报(METAR&TAF报告)。

可查询的气象台以黄色和红色小点在地图上表示。

将鼠标移到小点上方,可查看气象台名称。

然后点击查看天气观测和预报。

如需切换地图:点击带黑十字的绿色按钮放大地图;点击带横线的绿色按钮缩小地图;或者点击绿色箭头查看邻近地区的地图。


METAR-TAF: